createdAt,value
2022-09-28T00:01:19.311Z,26.50
2022-09-28T00:03:48.492Z,26.80
2022-09-28T00:06:21.579Z,26.80
2022-09-28T00:08:52.103Z,28.20
2022-09-28T00:11:21.428Z,27.50
2022-09-28T00:13:52.025Z,28.60
2022-09-28T00:18:50.740Z,32.30
2022-09-28T00:21:24.541Z,32.30
2022-09-28T00:24:12.701Z,30.50
2022-09-28T00:26:55.503Z,29.60
2022-09-28T00:29:33.534Z,29.90
2022-09-28T00:32:12.898Z,30.40
2022-09-28T00:34:45.438Z,28.90
2022-09-28T00:37:13.709Z,28.70
2022-09-28T00:39:41.286Z,27.60
2022-09-28T00:42:20.369Z,27.50
2022-09-28T00:44:49.042Z,29.10
2022-09-28T00:47:40.566Z,28.60
2022-09-28T00:50:28.727Z,29.80
2022-09-28T00:53:10.524Z,28.80
2022-09-28T00:56:10.705Z,27.30
2022-09-28T00:58:47.904Z,28.00
2022-09-28T01:01:15.518Z,28.90
2022-09-28T01:03:48.179Z,29.30
2022-09-28T01:06:23.965Z,27.80
2022-09-28T01:08:55.901Z,26.80
2022-09-28T01:11:24.329Z,27.50
2022-09-28T01:13:54.547Z,26.30
2022-09-28T01:16:47.505Z,28.10
2022-09-28T01:20:16.258Z,28.10
2022-09-28T01:23:12.210Z,25.80
2022-09-28T01:26:18.833Z,25.80
2022-09-28T01:28:47.777Z,25.60
2022-09-28T01:31:16.173Z,24.70
2022-09-28T01:34:21.810Z,24.60
2022-09-28T01:36:53.396Z,24.00
2022-09-28T01:39:43.821Z,23.10
2022-09-28T01:42:22.173Z,24.00
2022-09-28T01:44:51.904Z,22.60
2022-09-28T01:50:00.845Z,24.20
2022-09-28T01:52:43.028Z,23.40
2022-09-28T01:55:30.210Z,24.60
2022-09-28T01:58:13.462Z,24.80
2022-09-28T02:00:47.743Z,23.50
2022-09-28T02:03:24.232Z,25.20
2022-09-28T02:06:02.268Z,26.00
2022-09-28T02:08:36.274Z,25.30
2022-09-28T02:11:14.557Z,24.40
2022-09-28T02:14:03.062Z,23.90
2022-09-28T02:16:38.875Z,25.30
2022-09-28T02:19:10.668Z,25.40
2022-09-28T02:22:30.701Z,28.70
2022-09-28T02:25:09.517Z,26.50
2022-09-28T02:27:59.259Z,27.20
2022-09-28T02:30:30.098Z,27.50
2022-09-28T02:33:12.567Z,29.70
2022-09-28T02:35:42.542Z,28.80
2022-09-28T02:38:11.758Z,29.60
2022-09-28T02:40:40.161Z,28.80
2022-09-28T02:43:23.356Z,29.60
2022-09-28T02:46:04.162Z,29.80
2022-09-28T02:49:27.111Z,29.90
2022-09-28T02:52:44.736Z,28.90
2022-09-28T02:55:40.108Z,28.70
2022-09-28T02:59:06.674Z,27.90
2022-09-28T03:02:11.718Z,28.50
2022-09-28T03:05:02.801Z,29.90
2022-09-28T03:10:15.895Z,34.00
2022-09-28T03:12:46.167Z,30.90
2022-09-28T03:15:27.394Z,31.50
2022-09-28T03:17:56.345Z,31.60
2022-09-28T03:20:25.169Z,31.30
2022-09-28T03:23:19.743Z,30.00
2022-09-28T03:25:40.713Z,31.90
2022-09-28T03:28:08.272Z,29.50
2022-09-28T03:30:38.853Z,29.50
2022-09-28T03:33:06.605Z,26.50
2022-09-28T03:35:34.200Z,25.90
2022-09-28T03:38:01.687Z,26.60
2022-09-28T03:40:30.563Z,27.30
2022-09-28T03:42:59.666Z,25.60
2022-09-28T03:45:27.183Z,25.00
2022-09-28T03:47:55.198Z,25.00
2022-09-28T03:50:22.614Z,25.40
2022-09-28T03:52:50.149Z,25.10
2022-09-28T03:55:17.855Z,25.10
2022-09-28T03:57:45.391Z,26.50
2022-09-28T04:00:13.136Z,23.00
2022-09-28T04:02:43.304Z,25.60
2022-09-28T04:05:11.369Z,23.90
2022-09-28T04:07:39.278Z,24.30
2022-09-28T04:10:07.786Z,25.60
2022-09-28T04:12:35.167Z,23.10
2022-09-28T04:15:05.628Z,22.20
2022-09-28T04:17:37.796Z,23.50
2022-09-28T04:20:10.655Z,22.80
2022-09-28T04:22:41.867Z,22.60
2022-09-28T04:25:09.320Z,21.30
2022-09-28T04:27:56.612Z,22.30
2022-09-28T04:30:24.250Z,21.20
2022-09-28T04:32:53.004Z,20.70
2022-09-28T04:35:20.482Z,21.80
2022-09-28T04:37:48.194Z,19.60
2022-09-28T04:40:15.976Z,19.40
2022-09-28T04:42:43.678Z,20.00
2022-09-28T04:45:11.156Z,19.00
2022-09-28T04:47:43.113Z,19.50
2022-09-28T04:50:29.702Z,19.50
2022-09-28T04:53:18.029Z,19.00
2022-09-28T04:55:46.122Z,19.10
2022-09-28T04:58:13.697Z,18.50
2022-09-28T05:00:41.906Z,19.10
2022-09-28T05:03:47.575Z,17.40
2022-09-28T05:06:22.559Z,17.40
2022-09-28T05:08:57.118Z,17.10
2022-09-28T05:11:24.737Z,19.00
2022-09-28T05:13:52.727Z,16.60
2022-09-28T05:16:20.581Z,19.00
2022-09-28T05:19:06.654Z,17.10
2022-09-28T05:21:33.955Z,16.90
2022-09-28T05:24:06.783Z,17.80
2022-09-28T05:26:35.833Z,18.20
2022-09-28T05:29:03.186Z,17.30
2022-09-28T05:31:36.447Z,17.10
2022-09-28T05:34:11.492Z,15.70
2022-09-28T05:36:40.137Z,14.80
2022-09-28T05:39:09.229Z,16.40
2022-09-28T05:41:36.619Z,15.40
2022-09-28T05:44:03.927Z,16.30
2022-09-28T05:46:31.598Z,16.00
2022-09-28T05:49:00.889Z,16.40
2022-09-28T05:51:28.492Z,14.90
2022-09-28T05:53:57.505Z,16.00
2022-09-28T05:56:30.145Z,15.10
2022-09-28T05:58:58.235Z,15.30
2022-09-28T06:01:28.184Z,16.90
2022-09-28T06:03:57.556Z,15.80
2022-09-28T06:06:25.269Z,16.60
2022-09-28T06:08:52.904Z,15.30
2022-09-28T06:11:38.620Z,16.30
2022-09-28T06:14:57.352Z,15.90
2022-09-28T06:17:24.984Z,15.40
2022-09-28T06:20:12.354Z,15.20
2022-09-28T06:22:57.548Z,15.90
2022-09-28T06:25:27.246Z,13.80
2022-09-28T06:28:06.582Z,15.00
2022-09-28T06:30:37.921Z,13.20
2022-09-28T06:33:12.154Z,12.80
2022-09-28T06:35:40.148Z,12.60
2022-09-28T06:38:07.795Z,13.00
2022-09-28T06:40:35.852Z,11.70
2022-09-28T06:43:11.608Z,11.60
2022-09-28T06:45:57.695Z,10.60
2022-09-28T06:49:19.631Z,11.90
2022-09-28T06:52:40.541Z,11.50
2022-09-28T06:55:57.519Z,11.20
2022-09-28T06:58:26.453Z,10.70
2022-09-28T07:00:59.793Z,11.20
2022-09-28T07:03:29.230Z,11.40
2022-09-28T07:05:59.669Z,11.90
2022-09-28T07:09:06.062Z,11.20
2022-09-28T07:12:10.447Z,10.90
2022-09-28T07:15:24.816Z,10.20
2022-09-28T07:18:03.268Z,10.30
2022-09-28T07:20:43.537Z,11.30
2022-09-28T07:23:19.278Z,10.00
2022-09-28T07:26:08.184Z,10.40
2022-09-28T07:29:26.443Z,10.10
2022-09-28T07:32:12.461Z,9.00
2022-09-28T07:34:58.910Z,9.00
2022-09-28T07:37:45.613Z,8.30
2022-09-28T07:40:31.925Z,8.50
2022-09-28T07:43:06.682Z,9.30
2022-09-28T07:45:36.182Z,8.30
2022-09-28T07:48:03.924Z,8.20
2022-09-28T07:50:34.356Z,8.60
2022-09-28T07:53:28.089Z,7.60
2022-09-28T07:56:16.943Z,8.20
2022-09-28T07:58:53.234Z,7.60
2022-09-28T08:01:43.811Z,7.70
2022-09-28T08:04:14.241Z,7.90
2022-09-28T08:06:44.604Z,7.40
2022-09-28T08:09:13.573Z,7.50
2022-09-28T08:11:59.592Z,6.50
2022-09-28T08:14:47.526Z,8.30
2022-09-28T08:17:33.392Z,7.80
2022-09-28T08:20:24.496Z,7.40
2022-09-28T08:22:52.701Z,6.80
2022-09-28T08:25:20.779Z,6.70
2022-09-28T08:27:49.161Z,6.60
2022-09-28T08:30:16.967Z,6.70
2022-09-28T08:32:53.593Z,5.90
2022-09-28T08:35:40.809Z,6.50
2022-09-28T08:38:49.141Z,6.30
2022-09-28T08:41:38.637Z,5.60
2022-09-28T08:44:23.316Z,4.80
2022-09-28T08:48:26.624Z,4.70
2022-09-28T08:51:21.483Z,4.50
2022-09-28T08:54:16.233Z,5.70
2022-09-28T08:57:19.019Z,4.60
2022-09-28T08:59:50.883Z,4.10
2022-09-28T09:02:32.884Z,4.20
2022-09-28T09:08:49.600Z,5.40
2022-09-28T09:12:11.195Z,2.60
2022-09-28T09:15:38.440Z,3.50
2022-09-28T09:18:31.320Z,2.90
2022-09-28T09:21:39.788Z,2.90
2022-09-28T09:24:26.982Z,2.60
2022-09-28T09:27:28.257Z,3.00
2022-09-28T09:30:11.067Z,2.30
2022-09-28T09:33:24.392Z,2.40
2022-09-28T09:36:50.497Z,2.40
2022-09-28T09:40:00.609Z,2.70
2022-09-28T09:43:16.008Z,1.80
2022-09-28T09:45:59.297Z,1.80
2022-09-28T09:49:40.430Z,1.70
2022-09-28T09:52:44.392Z,1.60
2022-09-28T09:55:41.471Z,2.20
2022-09-28T09:59:11.936Z,1.50
2022-09-28T10:02:02.264Z,1.60
2022-09-28T10:04:46.224Z,2.30
2022-09-28T10:07:28.299Z,1.80
2022-09-28T10:10:01.746Z,1.40
2022-09-28T10:12:49.709Z,1.80
2022-09-28T10:15:24.862Z,1.60
2022-09-28T10:18:14.883Z,1.70
2022-09-28T10:21:00.936Z,1.40
2022-09-28T10:24:28.715Z,1.90
2022-09-28T10:29:37.252Z,2.10
2022-09-28T10:32:21.316Z,2.80
2022-09-28T10:34:51.985Z,2.40
2022-09-28T10:37:21.269Z,2.50
2022-09-28T10:40:44.222Z,2.50
2022-09-28T10:43:38.094Z,2.00
2022-09-28T10:46:21.355Z,2.10
2022-09-28T10:49:01.020Z,2.00
2022-09-28T10:54:21.146Z,2.10
2022-09-28T10:56:53.761Z,2.10
2022-09-28T10:59:30.571Z,1.80
2022-09-28T11:02:33.613Z,2.00
2022-09-28T11:05:27.465Z,2.70
2022-09-28T11:07:59.748Z,3.10
2022-09-28T11:10:32.967Z,2.00
2022-09-28T11:13:09.802Z,2.90
2022-09-28T11:15:41.736Z,2.60
2022-09-28T11:18:31.090Z,3.00
2022-09-28T11:21:19.080Z,3.20
2022-09-28T11:24:19.366Z,2.00
2022-09-28T11:26:52.443Z,2.50
2022-09-28T11:29:43.146Z,2.50
2022-09-28T11:32:16.255Z,2.10
2022-09-28T11:35:02.795Z,3.70
2022-09-28T11:38:21.412Z,3.70
2022-09-28T11:41:52.254Z,2.40
2022-09-28T11:44:38.626Z,2.80
2022-09-28T11:47:29.365Z,2.70
2022-09-28T11:50:06.126Z,2.60
2022-09-28T11:52:49.356Z,2.30
2022-09-28T11:55:43.344Z,2.00
2022-09-28T11:58:30.292Z,2.10
2022-09-28T12:01:21.158Z,2.90
2022-09-28T12:04:38.887Z,1.80
2022-09-28T12:07:23.063Z,2.20
2022-09-28T12:09:58.011Z,2.10
2022-09-28T12:12:37.016Z,2.00
2022-09-28T12:15:23.085Z,2.20
2022-09-28T12:18:10.709Z,1.90
2022-09-28T12:20:53.577Z,1.90
2022-09-28T12:23:33.599Z,2.10
2022-09-28T12:26:10.764Z,1.80
2022-09-28T12:28:48.918Z,1.70
2022-09-28T12:31:24.289Z,2.20
2022-09-28T12:33:52.056Z,2.00
2022-09-28T12:36:41.492Z,2.30
2022-09-28T12:40:03.120Z,1.90
2022-09-28T12:43:10.787Z,1.90
2022-09-28T12:46:10.446Z,2.60
2022-09-28T12:52:15.378Z,2.00
2022-09-28T12:55:21.553Z,2.00
2022-09-28T12:58:06.826Z,1.60
2022-09-28T13:01:13.341Z,1.40
2022-09-28T13:04:19.699Z,2.20
2022-09-28T13:07:05.961Z,1.80
2022-09-28T13:10:13.518Z,1.70
2022-09-28T13:13:14.638Z,1.70
2022-09-28T13:16:17.090Z,3.20
2022-09-28T13:18:56.815Z,2.20
2022-09-28T13:21:47.441Z,2.30
2022-09-28T13:24:33.061Z,2.10
2022-09-28T13:27:39.280Z,2.10
2022-09-28T13:30:07.995Z,2.10
2022-09-28T13:32:38.748Z,2.10
2022-09-28T13:35:06.464Z,2.20
2022-09-28T13:37:34.238Z,2.20
2022-09-28T13:40:05.778Z,2.20
2022-09-28T13:42:45.781Z,2.20
2022-09-28T13:45:22.228Z,2.40
2022-09-28T13:48:24.352Z,2.20
2022-09-28T13:51:06.825Z,3.00
2022-09-28T13:53:46.249Z,2.30
2022-09-28T13:57:03.016Z,2.60
2022-09-28T13:59:33.700Z,2.70
2022-09-28T14:02:26.307Z,2.60
2022-09-28T14:05:06.565Z,2.40
2022-09-28T14:07:33.840Z,3.80
2022-09-28T14:10:41.720Z,2.60
2022-09-28T14:13:09.834Z,2.30
2022-09-28T14:15:37.066Z,2.40
2022-09-28T14:18:28.004Z,2.20
2022-09-28T14:21:41.426Z,2.10
2022-09-28T14:24:52.778Z,2.20
2022-09-28T14:28:04.427Z,2.10
2022-09-28T14:30:37.673Z,1.90
2022-09-28T14:33:27.595Z,2.30
2022-09-28T14:36:01.879Z,2.00
2022-09-28T14:39:05.702Z,1.50
2022-09-28T14:41:41.514Z,2.20
2022-09-28T14:44:17.683Z,1.40
2022-09-28T14:46:46.822Z,1.70
2022-09-28T14:49:17.267Z,1.10
2022-09-28T14:52:03.096Z,1.60
2022-09-28T14:54:52.710Z,1.50
2022-09-28T14:57:28.481Z,1.80
2022-09-28T14:59:59.118Z,1.30
2022-09-28T15:02:32.017Z,1.10
2022-09-28T15:05:18.335Z,0.90
2022-09-28T15:07:51.750Z,1.20
2022-09-28T15:10:32.114Z,1.00
2022-09-28T15:13:03.275Z,1.20
2022-09-28T15:15:40.257Z,1.80
2022-09-28T15:18:33.707Z,1.60
2022-09-28T15:21:01.466Z,1.60
2022-09-28T15:23:39.737Z,1.30
2022-09-28T15:26:22.066Z,1.40
2022-09-28T15:28:49.499Z,1.90
2022-09-28T15:31:25.080Z,1.30
2022-09-28T15:34:11.829Z,1.50
2022-09-28T15:37:08.673Z,1.60
2022-09-28T15:39:36.177Z,1.70
2022-09-28T15:42:05.200Z,2.20
2022-09-28T15:44:36.631Z,2.00
2022-09-28T15:47:16.007Z,2.10
2022-09-28T15:49:56.755Z,1.70
2022-09-28T15:52:35.560Z,2.30
2022-09-28T15:55:16.665Z,2.30
2022-09-28T15:57:44.184Z,3.60
2022-09-28T16:00:20.883Z,1.70
2022-09-28T16:03:01.290Z,1.90
2022-09-28T16:05:35.260Z,3.20
2022-09-28T16:08:04.718Z,2.40
2022-09-28T16:10:34.686Z,2.60
2022-09-28T16:13:18.275Z,3.00
2022-09-28T16:15:45.856Z,2.80
2022-09-28T16:18:13.080Z,3.20
2022-09-28T16:20:40.748Z,3.30
2022-09-28T16:23:33.555Z,2.90
2022-09-28T16:26:16.153Z,4.50
2022-09-28T16:28:46.211Z,3.70
2022-09-28T16:31:13.610Z,4.30
2022-09-28T16:33:45.240Z,7.80
2022-09-28T16:36:16.760Z,9.80
2022-09-28T16:38:45.222Z,9.50
2022-09-28T16:41:15.899Z,9.90
2022-09-28T16:43:43.195Z,10.10
2022-09-28T16:46:14.014Z,10.20
2022-09-28T16:48:48.106Z,7.80
2022-09-28T16:51:16.794Z,8.20
2022-09-28T16:54:03.245Z,8.70
2022-09-28T16:56:34.198Z,8.00
2022-09-28T16:59:02.654Z,8.40
2022-09-28T17:01:31.000Z,8.00
2022-09-28T17:03:58.861Z,8.10
2022-09-28T17:06:26.967Z,7.50
2022-09-28T17:08:57.982Z,7.40
2022-09-28T17:11:26.076Z,6.70
2022-09-28T17:13:58.480Z,6.80
2022-09-28T17:17:03.821Z,6.90
2022-09-28T17:19:24.307Z,7.40
2022-09-28T17:21:52.310Z,8.40
2022-09-28T17:24:20.633Z,9.10
2022-09-28T17:26:50.842Z,10.50
2022-09-28T17:29:18.452Z,7.60
2022-09-28T17:31:46.915Z,8.90
2022-09-28T17:34:16.369Z,6.70
2022-09-28T17:36:44.953Z,6.10
2022-09-28T17:39:15.252Z,6.90
2022-09-28T17:41:45.807Z,6.50
2022-09-28T17:44:15.565Z,6.60
2022-09-28T17:46:48.503Z,8.30
2022-09-28T17:49:17.395Z,7.70
2022-09-28T17:51:45.339Z,7.80
2022-09-28T17:54:16.268Z,8.60
2022-09-28T17:56:43.817Z,7.80
2022-09-28T17:59:14.301Z,9.00
2022-09-28T18:01:43.380Z,9.10
2022-09-28T18:04:22.956Z,7.90
2022-09-28T18:06:55.567Z,8.20
2022-09-28T18:09:24.633Z,7.40
2022-09-28T18:11:59.831Z,6.90
2022-09-28T18:14:28.117Z,7.30
2022-09-28T18:16:56.379Z,6.90
2022-09-28T18:19:26.488Z,7.70
2022-09-28T18:21:57.936Z,6.70
2022-09-28T18:24:25.457Z,6.60
2022-09-28T18:26:52.821Z,7.00
2022-09-28T18:29:20.307Z,6.80
2022-09-28T18:31:48.398Z,7.20
2022-09-28T18:34:16.332Z,6.90
2022-09-28T18:36:43.868Z,7.50
2022-09-28T18:39:11.672Z,7.50
2022-09-28T18:41:39.353Z,7.80
2022-09-28T18:44:06.904Z,7.50
2022-09-28T18:46:36.123Z,7.30
2022-09-28T18:49:04.781Z,7.40
2022-09-28T18:51:33.005Z,7.50
2022-09-28T18:54:07.230Z,8.20
2022-09-28T18:56:36.872Z,7.70
2022-09-28T18:59:09.956Z,8.80
2022-09-28T19:01:41.226Z,8.50
2022-09-28T19:04:10.257Z,8.60
2022-09-28T19:06:40.329Z,9.60
2022-09-28T19:09:08.442Z,9.20
2022-09-28T19:11:36.146Z,9.00
2022-09-28T19:14:03.797Z,8.20
2022-09-28T19:16:33.708Z,10.20
2022-09-28T19:19:02.494Z,11.60
2022-09-28T19:21:30.815Z,11.90
2022-09-28T19:24:02.790Z,10.20
2022-09-28T19:26:32.414Z,8.60
2022-09-28T19:29:00.734Z,14.00
2022-09-28T19:31:29.833Z,11.80
2022-09-28T19:33:57.389Z,14.00
2022-09-28T19:36:27.945Z,13.70
2022-09-28T19:38:57.635Z,14.60
2022-09-28T19:41:43.146Z,18.40
2022-09-28T19:44:33.167Z,14.70
2022-09-28T19:47:11.261Z,11.40
2022-09-28T19:49:41.265Z,11.60
2022-09-28T19:52:16.994Z,11.20
2022-09-28T19:54:56.839Z,11.50
2022-09-28T19:57:32.380Z,9.90
2022-09-28T20:00:03.191Z,5.90
2022-09-28T20:02:34.844Z,5.60
2022-09-28T20:05:03.050Z,5.70
2022-09-28T20:07:33.194Z,5.40
2022-09-28T20:10:00.902Z,6.50
2022-09-28T20:12:28.641Z,5.90
2022-09-28T20:14:56.223Z,6.20
2022-09-28T20:17:23.776Z,6.40
2022-09-28T20:19:51.447Z,6.50
2022-09-28T20:22:19.657Z,6.20
2022-09-28T20:24:47.387Z,5.60
2022-09-28T20:27:14.832Z,6.10
2022-09-28T20:29:42.747Z,7.40
2022-09-28T20:32:11.758Z,6.20
2022-09-28T20:34:39.137Z,6.40
2022-09-28T20:37:06.880Z,6.70
2022-09-28T20:39:34.409Z,12.50
2022-09-28T20:42:02.454Z,7.40
2022-09-28T20:44:30.585Z,8.60
2022-09-28T20:46:58.468Z,7.10
2022-09-28T20:49:27.631Z,5.70
2022-09-28T20:51:55.376Z,6.30
2022-09-28T20:54:22.912Z,7.20
2022-09-28T20:56:50.465Z,6.50
2022-09-28T20:59:18.092Z,7.10
2022-09-28T21:01:45.715Z,5.20
2022-09-28T21:04:13.448Z,6.10
2022-09-28T21:06:41.982Z,5.10
2022-09-28T21:09:10.823Z,6.20
2022-09-28T21:11:39.161Z,5.50
2022-09-28T21:14:09.726Z,5.50
2022-09-28T21:16:37.967Z,5.70
2022-09-28T21:19:05.698Z,6.10
2022-09-28T21:21:33.455Z,5.40
2022-09-28T21:24:01.983Z,5.80
2022-09-28T21:26:30.655Z,6.60
2022-09-28T21:29:07.680Z,6.50
2022-09-28T21:31:54.616Z,5.70
2022-09-28T21:34:22.251Z,6.90
2022-09-28T21:36:50.879Z,5.80
2022-09-28T21:39:18.978Z,5.80
2022-09-28T21:41:46.750Z,5.70
2022-09-28T21:44:14.343Z,5.70
2022-09-28T21:46:42.297Z,6.60
2022-09-28T21:49:10.326Z,8.40
2022-09-28T21:51:38.028Z,9.70
2022-09-28T21:54:05.632Z,12.10
2022-09-28T21:56:33.575Z,11.30
2022-09-28T21:59:01.125Z,9.70
2022-09-28T22:01:31.266Z,9.00
2022-09-28T22:04:00.177Z,9.00
2022-09-28T22:06:27.721Z,9.10
2022-09-28T22:08:55.940Z,9.50
2022-09-28T22:11:26.369Z,8.90
2022-09-28T22:13:58.907Z,9.60
2022-09-28T22:16:30.226Z,8.70
2022-09-28T22:18:59.157Z,9.30
2022-09-28T22:21:31.392Z,9.90
2022-09-28T22:24:03.387Z,9.10
2022-09-28T22:26:33.552Z,8.80
2022-09-28T22:29:04.885Z,8.20
2022-09-28T22:31:38.987Z,8.30
2022-09-28T22:34:07.656Z,8.50
2022-09-28T22:36:35.739Z,9.30
2022-09-28T22:39:04.208Z,10.10
2022-09-28T22:41:31.743Z,10.00
2022-09-28T22:43:59.782Z,10.20
2022-09-28T22:46:31.409Z,9.80
2022-09-28T22:48:59.849Z,9.30
2022-09-28T22:51:29.129Z,8.80
2022-09-28T22:53:57.681Z,8.20
2022-09-28T22:56:26.344Z,6.70
2022-09-28T22:58:54.735Z,6.60
2022-09-28T23:01:29.412Z,6.30
2022-09-28T23:03:58.393Z,5.80
2022-09-28T23:06:30.644Z,5.60
2022-09-28T23:08:59.258Z,6.00
2022-09-28T23:11:28.650Z,5.80
2022-09-28T23:13:58.542Z,5.60
2022-09-28T23:16:29.477Z,6.10
2022-09-28T23:18:57.119Z,5.60
2022-09-28T23:21:26.755Z,5.90
2022-09-28T23:23:57.050Z,5.80
2022-09-28T23:26:28.257Z,5.50
2022-09-28T23:28:56.062Z,5.40
2022-09-28T23:31:27.523Z,5.80
2022-09-28T23:34:03.580Z,5.20
2022-09-28T23:36:31.739Z,5.60
2022-09-28T23:38:59.456Z,6.60
2022-09-28T23:41:27.217Z,6.80
2022-09-28T23:43:54.680Z,6.70
2022-09-28T23:46:22.090Z,7.30
2022-09-28T23:48:49.946Z,7.30
2022-09-28T23:51:17.356Z,7.30
2022-09-28T23:53:45.287Z,6.80
2022-09-28T23:56:14.139Z,6.70
2022-09-28T23:58:41.600Z,6.60
